createdAt,value
2018-10-15T00:01:08.214Z,54.64
2018-10-15T00:03:35.764Z,54.94
2018-10-15T00:06:03.290Z,54.50
2018-10-15T00:08:32.078Z,54.62
2018-10-15T00:10:59.590Z,54.85
2018-10-15T00:13:27.113Z,55.20
2018-10-15T00:15:54.671Z,55.38
2018-10-15T00:18:22.191Z,55.19
2018-10-15T00:20:50.083Z,55.09
2018-10-15T00:23:17.590Z,55.35
2018-10-15T00:25:45.091Z,55.81
2018-10-15T00:28:12.902Z,54.96
2018-10-15T00:30:40.548Z,55.60
2018-10-15T00:33:08.099Z,56.10
2018-10-15T00:35:35.658Z,56.23
2018-10-15T00:38:03.220Z,56.26
2018-10-15T00:40:30.733Z,56.90
2018-10-15T00:42:58.279Z,57.05
2018-10-15T00:45:25.818Z,56.52
2018-10-15T00:47:53.360Z,56.56
2018-10-15T00:50:20.861Z,57.26
2018-10-15T00:52:48.398Z,57.67
2018-10-15T00:55:15.923Z,58.74
2018-10-15T00:57:43.458Z,59.43
2018-10-15T01:00:12.478Z,58.68
2018-10-15T01:02:40.010Z,58.68
2018-10-15T01:05:08.182Z,58.87
2018-10-15T01:07:35.730Z,58.72
2018-10-15T01:10:03.329Z,58.31
2018-10-15T01:12:30.869Z,58.34
2018-10-15T01:14:58.396Z,58.62
2018-10-15T01:17:26.194Z,58.71
2018-10-15T01:19:53.739Z,58.79
2018-10-15T01:22:21.331Z,58.65
2018-10-15T01:24:48.850Z,58.80
2018-10-15T01:27:16.390Z,58.99
2018-10-15T01:29:43.915Z,58.96
2018-10-15T01:32:11.451Z,59.26
2018-10-15T01:34:38.986Z,59.40
2018-10-15T01:37:06.525Z,59.41
2018-10-15T01:39:34.055Z,59.49
2018-10-15T01:42:01.612Z,58.70
2018-10-15T01:44:29.147Z,58.84
2018-10-15T01:46:56.685Z,58.99
2018-10-15T01:49:24.208Z,59.71
2018-10-15T01:51:51.719Z,59.95
2018-10-15T01:54:19.245Z,60.13
2018-10-15T01:56:46.774Z,60.00
2018-10-15T01:59:14.283Z,60.06
2018-10-15T02:01:41.839Z,60.32
2018-10-15T02:04:09.362Z,60.29
2018-10-15T02:06:36.890Z,60.31
2018-10-15T02:09:06.534Z,60.17
2018-10-15T02:11:34.060Z,60.10
2018-10-15T02:14:01.603Z,59.97
2018-10-15T02:16:29.137Z,59.94
2018-10-15T02:18:56.673Z,59.96
2018-10-15T02:21:24.221Z,59.52
2018-10-15T02:23:51.755Z,59.57
2018-10-15T02:26:19.311Z,59.38
2018-10-15T02:28:46.830Z,59.23
2018-10-15T02:31:14.355Z,59.59
2018-10-15T02:33:41.906Z,59.81
2018-10-15T02:36:09.420Z,60.08
2018-10-15T02:38:36.938Z,60.68
2018-10-15T02:41:05.152Z,60.74
2018-10-15T02:43:32.663Z,60.65
2018-10-15T02:46:00.201Z,60.78
2018-10-15T02:48:27.742Z,60.09
2018-10-15T02:50:55.295Z,60.08
2018-10-15T02:53:22.810Z,60.28
2018-10-15T02:55:50.334Z,59.81
2018-10-15T02:58:17.909Z,60.15
2018-10-15T03:00:45.494Z,60.37
2018-10-15T03:03:13.045Z,60.53
2018-10-15T03:05:40.947Z,60.08
2018-10-15T03:08:08.480Z,58.72
2018-10-15T03:10:35.989Z,59.39
2018-10-15T03:13:03.587Z,59.99
2018-10-15T03:15:31.092Z,59.82
2018-10-15T03:17:58.634Z,59.98
2018-10-15T03:20:26.176Z,60.38
2018-10-15T03:22:53.727Z,60.89
2018-10-15T03:25:21.281Z,60.79
2018-10-15T03:27:48.799Z,61.27
2018-10-15T03:30:16.376Z,61.53
2018-10-15T03:32:43.978Z,62.37
2018-10-15T03:35:11.830Z,61.48
2018-10-15T03:37:39.434Z,61.58
2018-10-15T03:40:07.223Z,61.99
2018-10-15T03:42:34.734Z,61.41
2018-10-15T03:45:02.322Z,60.98
2018-10-15T03:47:29.867Z,60.38
2018-10-15T03:49:57.730Z,60.27
2018-10-15T03:52:25.331Z,60.38
2018-10-15T03:54:52.846Z,60.65
2018-10-15T03:57:20.695Z,60.64
2018-10-15T03:59:48.211Z,60.95
2018-10-15T04:02:15.765Z,60.78
2018-10-15T04:04:43.346Z,60.08
2018-10-15T04:07:10.856Z,59.87
2018-10-15T04:09:38.411Z,59.94
2018-10-15T04:12:05.998Z,60.52
2018-10-15T04:14:33.678Z,60.47
2018-10-15T04:17:01.114Z,60.04
2018-10-15T04:19:28.644Z,58.60
2018-10-15T04:21:56.288Z,58.68
2018-10-15T04:24:23.899Z,58.69
2018-10-15T04:26:51.458Z,58.30
2018-10-15T04:29:18.999Z,58.23
2018-10-15T04:31:46.527Z,58.34
2018-10-15T04:34:14.403Z,58.61
2018-10-15T04:36:42.238Z,58.87
2018-10-15T04:39:10.098Z,59.47
2018-10-15T04:41:38.807Z,59.14
2018-10-15T04:44:06.423Z,59.61
2018-10-15T04:46:34.011Z,59.45
2018-10-15T04:49:01.630Z,59.44
2018-10-15T04:51:29.191Z,59.28
2018-10-15T04:53:56.714Z,59.40
2018-10-15T04:56:24.310Z,58.90
2018-10-15T04:58:51.840Z,58.65
2018-10-15T05:01:19.404Z,58.75
2018-10-15T05:03:46.936Z,59.13
2018-10-15T05:06:14.575Z,59.97
2018-10-15T05:08:42.147Z,60.29
2018-10-15T05:11:09.702Z,60.17
2018-10-15T05:13:37.218Z,59.96
2018-10-15T05:16:04.940Z,59.97
2018-10-15T05:18:32.502Z,59.00
2018-10-15T05:21:00.125Z,58.42
2018-10-15T05:23:27.661Z,58.10
2018-10-15T05:25:55.220Z,58.32
2018-10-15T05:28:22.734Z,57.93
2018-10-15T05:30:50.357Z,57.79
2018-10-15T05:33:17.846Z,57.49
2018-10-15T05:35:45.375Z,56.86
2018-10-15T05:38:12.897Z,56.88
2018-10-15T05:40:40.452Z,56.77
2018-10-15T05:43:08.668Z,56.80
2018-10-15T05:45:36.235Z,56.47
2018-10-15T05:48:04.205Z,55.81
2018-10-15T05:50:31.684Z,55.46
2018-10-15T05:53:00.179Z,54.82
2018-10-15T05:55:27.724Z,54.12
2018-10-15T05:57:55.254Z,53.27
2018-10-15T06:00:22.912Z,52.91
2018-10-15T06:02:50.470Z,52.45
2018-10-15T06:05:18.020Z,52.53
2018-10-15T06:07:45.584Z,52.80
2018-10-15T06:10:15.322Z,53.51
2018-10-15T06:12:44.090Z,54.94
2018-10-15T06:15:11.532Z,55.84
2018-10-15T06:17:39.100Z,56.35
2018-10-15T06:20:07.548Z,56.39
2018-10-15T06:22:35.211Z,57.11
2018-10-15T06:25:03.069Z,56.63
2018-10-15T06:27:30.586Z,55.38
2018-10-15T06:29:58.120Z,54.83
2018-10-15T06:32:25.686Z,53.34
2018-10-15T06:34:53.210Z,53.72
2018-10-15T06:37:20.795Z,53.98
2018-10-15T06:39:48.615Z,53.81
2018-10-15T06:42:16.181Z,52.93
2018-10-15T06:44:43.687Z,52.89
2018-10-15T06:47:11.279Z,52.40
2018-10-15T06:49:38.747Z,50.56
2018-10-15T06:52:06.674Z,47.14
2018-10-15T06:54:34.167Z,45.02
2018-10-15T06:57:01.722Z,43.44
2018-10-15T06:59:29.276Z,42.66
2018-10-15T07:01:56.794Z,42.16
2018-10-15T07:04:24.702Z,42.69
2018-10-15T07:06:52.194Z,43.21
2018-10-15T07:09:19.698Z,43.01
2018-10-15T07:11:47.698Z,43.70
2018-10-15T07:14:15.290Z,44.03
2018-10-15T07:16:42.802Z,44.85
2018-10-15T07:19:10.398Z,45.00
2018-10-15T07:21:38.578Z,44.20
2018-10-15T07:24:06.410Z,43.26
2018-10-15T07:26:33.930Z,43.47
2018-10-15T07:29:01.470Z,42.39
2018-10-15T07:31:29.015Z,41.38
2018-10-15T07:33:56.582Z,40.77
2018-10-15T07:36:24.111Z,39.24
2018-10-15T07:38:51.684Z,36.58
2018-10-15T07:41:19.265Z,33.55
2018-10-15T07:43:46.803Z,29.31
2018-10-15T07:46:14.451Z,27.83
2018-10-15T07:48:41.878Z,26.43
2018-10-15T07:51:09.467Z,24.26
2018-10-15T07:53:36.984Z,22.79
2018-10-15T07:56:04.634Z,21.74
2018-10-15T07:58:32.115Z,21.15
2018-10-15T08:00:59.726Z,20.64
2018-10-15T08:03:27.276Z,19.97
2018-10-15T08:05:54.806Z,18.97
2018-10-15T08:08:22.539Z,17.85
2018-10-15T08:10:49.942Z,17.29
2018-10-15T08:13:17.489Z,17.23
2018-10-15T08:15:45.181Z,15.58
2018-10-15T08:18:13.891Z,15.47
2018-10-15T08:20:41.443Z,15.10
2018-10-15T08:23:08.955Z,14.18
2018-10-15T08:25:36.506Z,14.72
2018-10-15T08:28:04.059Z,13.43
2018-10-15T08:30:31.621Z,13.49
2018-10-15T08:32:59.174Z,13.41
2018-10-15T08:35:26.750Z,13.66
2018-10-15T08:37:54.303Z,14.72
2018-10-15T08:40:22.106Z,14.62
2018-10-15T08:42:51.042Z,13.21
2018-10-15T08:45:21.928Z,13.55
2018-10-15T08:47:49.944Z,13.44
2018-10-15T08:50:18.146Z,12.43
2018-10-15T08:52:46.895Z,11.81
2018-10-15T08:55:14.898Z,11.40
2018-10-15T08:57:42.421Z,11.22
2018-10-15T09:00:13.663Z,10.33
2018-10-15T09:02:41.261Z,11.20
2018-10-15T09:05:10.148Z,10.73
2018-10-15T09:07:39.736Z,10.28
2018-10-15T09:10:08.330Z,9.29
2018-10-15T09:12:36.252Z,9.95
2018-10-15T09:15:04.543Z,9.15
2018-10-15T09:17:32.107Z,10.23
2018-10-15T09:19:59.700Z,10.78
2018-10-15T09:22:27.181Z,10.53
2018-10-15T09:24:54.763Z,10.48
2018-10-15T09:27:22.412Z,10.26
2018-10-15T09:29:49.853Z,9.50
2018-10-15T09:32:17.408Z,10.37
2018-10-15T09:34:44.959Z,10.14
2018-10-15T09:37:12.555Z,11.39
2018-10-15T09:39:40.133Z,10.37
2018-10-15T09:42:07.680Z,10.59
2018-10-15T09:44:35.231Z,11.49
2018-10-15T09:47:02.825Z,11.11
2018-10-15T09:49:30.325Z,10.94
2018-10-15T09:51:57.916Z,11.52
2018-10-15T09:54:25.514Z,11.69
2018-10-15T09:56:53.120Z,11.61
2018-10-15T09:59:20.744Z,11.63
2018-10-15T10:01:53.892Z,12.23
2018-10-15T10:04:21.510Z,11.92
2018-10-15T10:06:49.122Z,12.71
2018-10-15T10:09:16.624Z,11.52
2018-10-15T10:11:44.610Z,11.58
2018-10-15T10:14:12.153Z,11.73
2018-10-15T10:16:39.714Z,10.62
2018-10-15T10:19:07.623Z,11.35
2018-10-15T10:21:35.847Z,10.36
2018-10-15T10:24:03.874Z,10.62
2018-10-15T10:26:31.694Z,9.50
2018-10-15T10:28:59.453Z,9.76
2018-10-15T10:31:26.880Z,9.09
2018-10-15T10:34:01.454Z,8.88
2018-10-15T10:36:29.030Z,9.25
2018-10-15T10:38:58.271Z,9.22
2018-10-15T10:41:26.163Z,9.37
2018-10-15T10:43:53.732Z,10.13
2018-10-15T10:46:21.471Z,10.25
2018-10-15T10:48:49.309Z,12.31
2018-10-15T10:51:16.910Z,12.57
2018-10-15T10:53:44.493Z,14.19
2018-10-15T10:56:12.109Z,14.46
2018-10-15T10:58:39.693Z,15.51
2018-10-15T11:01:08.074Z,15.57
2018-10-15T11:03:35.679Z,16.07
2018-10-15T11:06:03.261Z,16.06
2018-10-15T11:08:31.090Z,15.88
2018-10-15T11:10:58.603Z,16.11
2018-10-15T11:13:26.153Z,17.02
2018-10-15T11:15:53.899Z,17.94
2018-10-15T11:18:21.523Z,17.26
2018-10-15T11:20:49.044Z,16.59
2018-10-15T11:23:17.022Z,16.77
2018-10-15T11:25:44.570Z,17.54
2018-10-15T11:28:12.125Z,18.43
2018-10-15T11:30:40.103Z,17.45
2018-10-15T11:33:07.648Z,17.35
2018-10-15T11:35:35.209Z,17.52
2018-10-15T11:38:03.090Z,17.12
2018-10-15T11:40:30.635Z,17.62
2018-10-15T11:42:58.187Z,17.73
2018-10-15T11:45:26.048Z,17.60
2018-10-15T11:47:53.583Z,17.67
2018-10-15T11:50:21.234Z,18.05
2018-10-15T11:52:48.902Z,17.58
2018-10-15T11:55:16.453Z,18.90
2018-10-15T11:57:44.010Z,18.26
2018-10-15T12:00:13.698Z,17.43
2018-10-15T12:02:42.256Z,18.67
2018-10-15T12:05:10.306Z,18.01
2018-10-15T12:07:37.976Z,19.23
2018-10-15T12:10:06.175Z,19.19
2018-10-15T12:12:33.783Z,18.97
2018-10-15T12:15:01.343Z,19.19
2018-10-15T12:17:28.918Z,18.92
2018-10-15T12:19:56.487Z,19.57
2018-10-15T12:22:24.032Z,19.12
2018-10-15T12:24:51.587Z,18.62
2018-10-15T12:27:19.191Z,18.95
2018-10-15T12:29:46.963Z,20.08
2018-10-15T12:32:14.518Z,19.83
2018-10-15T12:34:47.956Z,20.00
2018-10-15T12:37:15.607Z,20.31
2018-10-15T12:39:43.162Z,19.46
2018-10-15T12:42:10.715Z,20.77
2018-10-15T12:44:38.286Z,20.08
2018-10-15T12:47:06.117Z,20.05
2018-10-15T12:49:33.638Z,20.59
2018-10-15T12:52:01.271Z,21.11
2018-10-15T12:54:28.806Z,21.40
2018-10-15T12:56:56.406Z,21.02
2018-10-15T12:59:23.931Z,21.37
2018-10-15T13:01:51.499Z,21.02
2018-10-15T13:04:19.191Z,22.39
2018-10-15T13:06:46.582Z,22.14
2018-10-15T13:09:14.146Z,22.48
2018-10-15T13:11:41.757Z,21.97
2018-10-15T13:14:09.273Z,21.98
2018-10-15T13:16:36.819Z,21.75
2018-10-15T13:19:04.428Z,21.63
2018-10-15T13:21:32.329Z,21.28
2018-10-15T13:23:59.938Z,21.04
2018-10-15T13:26:27.568Z,20.86
2018-10-15T13:28:55.114Z,20.54
2018-10-15T13:31:22.651Z,19.27
2018-10-15T13:33:50.213Z,18.29
2018-10-15T13:36:17.911Z,19.44
2018-10-15T13:38:45.483Z,19.77
2018-10-15T13:41:13.030Z,19.67
2018-10-15T13:43:40.695Z,20.29
2018-10-15T13:46:08.948Z,20.68
2018-10-15T13:48:36.902Z,20.16
2018-10-15T13:51:04.498Z,20.20
2018-10-15T13:53:32.047Z,19.85
2018-10-15T13:55:59.603Z,20.03
2018-10-15T13:58:27.180Z,20.76
2018-10-15T14:00:54.790Z,21.07
2018-10-15T14:03:22.350Z,21.64
2018-10-15T14:05:49.884Z,21.67
2018-10-15T14:08:17.463Z,20.33
2018-10-15T14:10:45.007Z,20.82
2018-10-15T14:13:12.619Z,20.94
2018-10-15T14:15:40.145Z,21.12
2018-10-15T14:18:07.751Z,20.77
2018-10-15T14:20:35.313Z,21.10
2018-10-15T14:23:02.912Z,21.10
2018-10-15T14:25:30.554Z,20.57
2018-10-15T14:27:58.193Z,21.55
2018-10-15T14:30:25.768Z,21.62
2018-10-15T14:32:53.326Z,20.66
2018-10-15T14:35:20.859Z,22.27
2018-10-15T14:37:48.452Z,21.53
2018-10-15T14:40:18.293Z,21.48
2018-10-15T14:42:45.831Z,22.78
2018-10-15T14:45:14.441Z,22.60
2018-10-15T14:47:42.101Z,23.28
2018-10-15T14:50:10.738Z,23.30
2018-10-15T14:52:38.316Z,22.69
2018-10-15T14:55:05.950Z,22.45
2018-10-15T14:57:33.498Z,23.17
2018-10-15T15:00:01.067Z,22.97
2018-10-15T15:02:28.617Z,22.34
2018-10-15T15:04:56.228Z,22.10
2018-10-15T15:07:23.828Z,21.97
2018-10-15T15:09:57.005Z,21.40
2018-10-15T15:13:28.891Z,21.48
2018-10-15T15:15:56.461Z,22.18
2018-10-15T15:18:24.045Z,22.17
2018-10-15T15:20:51.619Z,22.65
2018-10-15T15:23:19.159Z,22.64
2018-10-15T15:25:46.688Z,22.03
2018-10-15T15:28:15.263Z,22.79
2018-10-15T15:30:42.822Z,22.74
2018-10-15T15:33:10.397Z,22.41
2018-10-15T15:35:37.990Z,22.51
2018-10-15T15:38:05.713Z,22.95
2018-10-15T15:40:33.296Z,23.22
2018-10-15T15:43:00.835Z,23.17
2018-10-15T15:45:28.425Z,23.36
2018-10-15T15:47:56.002Z,24.12
2018-10-15T15:50:23.576Z,23.94
2018-10-15T15:52:51.159Z,24.19
2018-10-15T15:55:18.747Z,24.33
2018-10-15T15:57:46.331Z,24.78
2018-10-15T16:00:13.853Z,24.55
2018-10-15T16:02:42.110Z,24.89
2018-10-15T16:05:10.382Z,24.65
2018-10-15T16:07:38.260Z,24.94
2018-10-15T16:10:06.470Z,25.12
2018-10-15T16:12:34.038Z,25.44
2018-10-15T16:15:01.639Z,25.40
2018-10-15T16:17:29.245Z,25.52
2018-10-15T16:19:56.837Z,26.24
2018-10-15T16:22:24.371Z,25.95
2018-10-15T16:24:52.011Z,27.97
2018-10-15T16:27:19.606Z,27.54
2018-10-15T16:29:47.177Z,28.81
2018-10-15T16:32:14.823Z,28.85
2018-10-15T16:34:42.366Z,28.84
2018-10-15T16:37:09.962Z,30.03
2018-10-15T16:39:37.503Z,30.20
2018-10-15T16:42:05.120Z,30.93
2018-10-15T16:44:32.669Z,31.16
2018-10-15T16:47:00.227Z,30.82
2018-10-15T16:49:27.772Z,31.06
2018-10-15T16:51:55.412Z,30.71
2018-10-15T16:54:22.913Z,31.15
2018-10-15T16:56:50.448Z,31.25
2018-10-15T16:59:18.070Z,31.43
2018-10-15T17:01:45.579Z,31.60
2018-10-15T17:04:13.155Z,31.49
2018-10-15T17:06:40.693Z,31.40
2018-10-15T17:09:08.912Z,31.54
2018-10-15T17:11:36.492Z,32.00
2018-10-15T17:14:04.107Z,32.48
2018-10-15T17:16:31.676Z,32.55
2018-10-15T17:18:59.268Z,32.39
2018-10-15T17:21:26.791Z,32.41
2018-10-15T17:23:54.427Z,32.97
2018-10-15T17:26:21.975Z,33.08
2018-10-15T17:28:49.579Z,33.17
2018-10-15T17:31:17.209Z,33.19
2018-10-15T17:33:44.806Z,33.28
2018-10-15T17:36:12.468Z,33.61
2018-10-15T17:38:40.050Z,33.11
2018-10-15T17:41:07.642Z,33.10
2018-10-15T17:43:35.238Z,33.65
2018-10-15T17:46:02.845Z,34.18
2018-10-15T17:48:30.441Z,34.05
2018-10-15T17:50:58.019Z,33.72
2018-10-15T17:53:25.572Z,33.16
2018-10-15T17:55:53.267Z,33.48
2018-10-15T17:58:20.806Z,33.68
2018-10-15T18:00:48.429Z,34.43
2018-10-15T18:03:16.052Z,34.66
2018-10-15T18:05:43.635Z,34.78
2018-10-15T18:08:11.232Z,34.77
2018-10-15T18:10:38.964Z,34.90
2018-10-15T18:13:06.542Z,35.08
2018-10-15T18:15:34.171Z,35.27
2018-10-15T18:18:01.762Z,35.09
2018-10-15T18:20:29.400Z,35.03
2018-10-15T18:22:57.003Z,35.57
2018-10-15T18:25:24.621Z,35.97
2018-10-15T18:27:52.163Z,36.22
2018-10-15T18:30:19.790Z,36.92
2018-10-15T18:32:47.371Z,36.46
2018-10-15T18:35:15.110Z,36.39
2018-10-15T18:37:42.699Z,36.05
2018-10-15T18:40:10.609Z,36.64
2018-10-15T18:42:38.345Z,36.10
2018-10-15T18:45:06.400Z,36.45
2018-10-15T18:47:33.970Z,36.29
2018-10-15T18:50:01.586Z,36.17
2018-10-15T18:52:29.198Z,36.65
2018-10-15T18:54:56.758Z,36.89
2018-10-15T18:57:24.648Z,37.04
2018-10-15T18:59:52.748Z,37.14
2018-10-15T19:02:20.351Z,36.93
2018-10-15T19:04:47.939Z,37.27
2018-10-15T19:07:15.553Z,37.61
2018-10-15T19:09:43.132Z,38.01
2018-10-15T19:12:10.702Z,38.24
2018-10-15T19:14:38.246Z,37.92
2018-10-15T19:17:05.835Z,38.23
2018-10-15T19:19:33.681Z,38.59
2018-10-15T19:22:01.275Z,38.41
2018-10-15T19:24:28.840Z,38.94
2018-10-15T19:26:56.436Z,38.77
2018-10-15T19:29:24.027Z,39.20
2018-10-15T19:31:58.229Z,38.85
2018-10-15T19:34:25.821Z,39.62
2018-10-15T19:36:53.403Z,39.26
2018-10-15T19:39:20.999Z,39.43
2018-10-15T19:41:48.578Z,40.03
2018-10-15T19:44:16.153Z,39.96
2018-10-15T19:46:43.715Z,40.31
2018-10-15T19:49:11.318Z,40.62
2018-10-15T19:51:38.883Z,40.48
2018-10-15T19:54:06.484Z,40.77
2018-10-15T19:56:35.157Z,41.14
2018-10-15T19:59:03.410Z,41.56
2018-10-15T20:01:31.395Z,41.33
2018-10-15T20:03:59.071Z,41.60
2018-10-15T20:06:26.736Z,42.00
2018-10-15T20:08:54.272Z,41.84
2018-10-15T20:11:21.819Z,42.25
2018-10-15T20:13:50.023Z,42.11
2018-10-15T20:16:17.622Z,42.33
2018-10-15T20:18:45.201Z,42.66
2018-10-15T20:21:12.770Z,42.66
2018-10-15T20:23:40.360Z,43.07
2018-10-15T20:26:08.031Z,43.01
2018-10-15T20:28:35.794Z,43.65
2018-10-15T20:31:03.450Z,44.14
2018-10-15T20:33:30.971Z,43.65
2018-10-15T20:35:58.637Z,44.19
2018-10-15T20:38:26.128Z,44.40
2018-10-15T20:40:53.682Z,44.40
2018-10-15T20:43:21.299Z,44.70
2018-10-15T20:45:48.843Z,44.70
2018-10-15T20:48:16.407Z,44.62
2018-10-15T20:50:43.942Z,45.23
2018-10-15T20:53:11.533Z,44.78
2018-10-15T20:55:39.112Z,44.63
2018-10-15T20:58:06.672Z,45.04
2018-10-15T21:00:34.198Z,45.44
2018-10-15T21:03:01.783Z,44.66
2018-10-15T21:05:29.326Z,44.37
2018-10-15T21:07:56.881Z,44.40
2018-10-15T21:10:24.434Z,45.12
2018-10-15T21:12:52.026Z,45.79
2018-10-15T21:15:19.642Z,45.77
2018-10-15T21:17:47.194Z,46.12
2018-10-15T21:20:14.742Z,45.30
2018-10-15T21:22:42.306Z,45.42
2018-10-15T21:25:10.959Z,46.17
2018-10-15T21:27:39.123Z,46.70
2018-10-15T21:30:07.360Z,47.27
2018-10-15T21:32:35.152Z,47.57
2018-10-15T21:35:02.786Z,47.95
2018-10-15T21:37:30.366Z,48.70
2018-10-15T21:39:57.946Z,48.59
2018-10-15T21:42:25.488Z,48.77
2018-10-15T21:44:53.038Z,49.35
2018-10-15T21:47:21.323Z,49.29
2018-10-15T21:49:49.993Z,48.57
2018-10-15T21:52:17.550Z,48.24
2018-10-15T21:54:45.206Z,48.45
2018-10-15T21:57:12.758Z,48.70
2018-10-15T21:59:40.282Z,48.24
2018-10-15T22:02:07.844Z,49.07
2018-10-15T22:04:35.362Z,49.16
2018-10-15T22:07:02.930Z,49.93
2018-10-15T22:09:30.482Z,49.46
2018-10-15T22:11:58.010Z,49.15
2018-10-15T22:14:25.573Z,49.04
2018-10-15T22:16:53.171Z,49.84
2018-10-15T22:19:20.713Z,49.75
2018-10-15T22:21:48.291Z,50.09
2018-10-15T22:24:15.861Z,50.36
2018-10-15T22:26:43.400Z,50.44
2018-10-15T22:29:10.962Z,50.65
2018-10-15T22:31:38.818Z,50.22
2018-10-15T22:34:08.298Z,50.31
2018-10-15T22:36:36.091Z,51.51
2018-10-15T22:39:05.495Z,51.95
2018-10-15T22:41:33.046Z,51.91
2018-10-15T22:44:00.619Z,52.48
2018-10-15T22:46:28.140Z,52.69
2018-10-15T22:48:55.678Z,52.24
2018-10-15T22:51:23.231Z,51.72
2018-10-15T22:53:50.758Z,52.47
2018-10-15T22:56:18.301Z,52.93
2018-10-15T22:58:45.843Z,52.67
2018-10-15T23:01:13.362Z,52.87
2018-10-15T23:03:40.901Z,52.58
2018-10-15T23:06:08.499Z,52.72
2018-10-15T23:08:36.083Z,52.44
2018-10-15T23:11:03.642Z,52.85
2018-10-15T23:13:31.161Z,53.22
2018-10-15T23:15:59.005Z,52.98
2018-10-15T23:18:26.531Z,54.22
2018-10-15T23:20:54.042Z,54.13
2018-10-15T23:23:21.885Z,54.54
2018-10-15T23:25:49.436Z,55.03
2018-10-15T23:28:16.978Z,55.19
2018-10-15T23:30:44.522Z,55.38
2018-10-15T23:33:12.054Z,55.58
2018-10-15T23:35:39.589Z,55.42
2018-10-15T23:38:07.138Z,55.12
2018-10-15T23:40:34.678Z,54.36
2018-10-15T23:43:02.285Z,54.61
2018-10-15T23:45:29.798Z,55.30
2018-10-15T23:47:57.347Z,55.57
2018-10-15T23:50:24.875Z,55.57
2018-10-15T23:52:52.406Z,55.02
2018-10-15T23:55:19.921Z,55.24
2018-10-15T23:57:47.452Z,55.82
